Terminal Aerodrome Forecast
Issued by NWS Lake Charles, LA

Current Version | Previous Version | Text Only | Print | Product List | Glossary On
Versions: 1 2 3 4 5 6 7 8 9 10 11 12 13 14 15 16 17 18 19
633
FTUS44 KLCH 240520
TAFLCH
TAF
KLCH 240520Z 2406/2506 VRB03KT P6SM FEW020 BKN200
     FM241000 00000KT P6SM BKN015
      TEMPO 2412/2414 5SM BR
     FM241500 15012G18KT P6SM SCT025
     FM250100 14008KT P6SM FEW040=

USA.gov is the U.S. government's official web portal to all federal, state and local government web resources and services.